sensor_id;sensor_type;location;lat;lon;timestamp;P1;durP1;ratioP1;P2;durP2;ratioP2
7377;SDS011;3730;50.856;12.776;2023-10-19T00:01:47;11.63;;;9.60;;
7377;SDS011;3730;50.856;12.776;2023-10-19T00:04:13;12.73;;;9.83;;
7377;SDS011;3730;50.856;12.776;2023-10-19T00:06:39;14.03;;;10.20;;
7377;SDS011;3730;50.856;12.776;2023-10-19T00:09:05;12.53;;;9.83;;
7377;SDS011;3730;50.856;12.776;2023-10-19T00:11:36;9.87;;;8.77;;
7377;SDS011;3730;50.856;12.776;2023-10-19T00:14:05;13.93;;;8.70;;
7377;SDS011;3730;50.856;12.776;2023-10-19T00:16:44;11.37;;;8.93;;
7377;SDS011;3730;50.856;12.776;2023-10-19T00:19:18;9.67;;;8.67;;
7377;SDS011;3730;50.856;12.776;2023-10-19T00:21:47;13.77;;;9.23;;
7377;SDS011;3730;50.856;12.776;2023-10-19T00:24:19;9.80;;;8.13;;
7377;SDS011;3730;50.856;12.776;2023-10-19T00:26:48;12.23;;;8.80;;
7377;SDS011;3730;50.856;12.776;2023-10-19T00:29:17;12.47;;;9.07;;
7377;SDS011;3730;50.856;12.776;2023-10-19T00:31:55;10.67;;;8.50;;
7377;SDS011;3730;50.856;12.776;2023-10-19T00:34:21;12.77;;;8.37;;
7377;SDS011;3730;50.856;12.776;2023-10-19T00:36:49;11.23;;;8.40;;
7377;SDS011;3730;50.856;12.776;2023-10-19T00:39:16;12.60;;;9.30;;
7377;SDS011;3730;50.856;12.776;2023-10-19T00:41:46;10.40;;;9.17;;
7377;SDS011;3730;50.856;12.776;2023-10-19T00:44:13;10.70;;;9.10;;
7377;SDS011;3730;50.856;12.776;2023-10-19T00:46:47;10.83;;;9.13;;
7377;SDS011;3730;50.856;12.776;2023-10-19T00:49:20;12.97;;;9.33;;
7377;SDS011;3730;50.856;12.776;2023-10-19T00:51:49;16.10;;;9.23;;
7377;SDS011;3730;50.856;12.776;2023-10-19T00:54:35;11.03;;;9.23;;
7377;SDS011;3730;50.856;12.776;2023-10-19T00:57:28;12.20;;;8.97;;
7377;SDS011;3730;50.856;12.776;2023-10-19T01:00:01;10.87;;;9.03;;
7377;SDS011;3730;50.856;12.776;2023-10-19T01:02:39;9.60;;;8.57;;
7377;SDS011;3730;50.856;12.776;2023-10-19T01:05:10;10.93;;;8.97;;
7377;SDS011;3730;50.856;12.776;2023-10-19T01:07:38;10.03;;;8.87;;
7377;SDS011;3730;50.856;12.776;2023-10-19T01:10:09;10.33;;;9.20;;
7377;SDS011;3730;50.856;12.776;2023-10-19T01:12:46;11.33;;;9.10;;
7377;SDS011;3730;50.856;12.776;2023-10-19T01:17:39;10.67;;;9.40;;
7377;SDS011;3730;50.856;12.776;2023-10-19T01:20:07;11.43;;;9.10;;
7377;SDS011;3730;50.856;12.776;2023-10-19T01:25:18;11.30;;;9.40;;
7377;SDS011;3730;50.856;12.776;2023-10-19T01:27:45;11.00;;;8.40;;
7377;SDS011;3730;50.856;12.776;2023-10-19T01:30:12;12.40;;;8.90;;
7377;SDS011;3730;50.856;12.776;2023-10-19T01:32:41;10.03;;;9.00;;
7377;SDS011;3730;50.856;12.776;2023-10-19T01:35:07;9.67;;;8.50;;
7377;SDS011;3730;50.856;12.776;2023-10-19T01:37:33;12.10;;;8.90;;
7377;SDS011;3730;50.856;12.776;2023-10-19T01:40:03;11.70;;;9.10;;
7377;SDS011;3730;50.856;12.776;2023-10-19T01:42:29;11.83;;;9.17;;
7377;SDS011;3730;50.856;12.776;2023-10-19T01:44:56;13.30;;;10.50;;
7377;SDS011;3730;50.856;12.776;2023-10-19T01:47:22;13.43;;;9.70;;
7377;SDS011;3730;50.856;12.776;2023-10-19T01:49:49;12.60;;;10.40;;
7377;SDS011;3730;50.856;12.776;2023-10-19T01:52:17;11.00;;;9.70;;
7377;SDS011;3730;50.856;12.776;2023-10-19T01:54:43;11.90;;;10.63;;
7377;SDS011;3730;50.856;12.776;2023-10-19T01:57:09;12.00;;;9.73;;
7377;SDS011;3730;50.856;12.776;2023-10-19T01:59:37;12.47;;;9.93;;
7377;SDS011;3730;50.856;12.776;2023-10-19T02:02:03;14.10;;;10.23;;
7377;SDS011;3730;50.856;12.776;2023-10-19T02:04:29;11.03;;;9.37;;
7377;SDS011;3730;50.856;12.776;2023-10-19T02:06:59;15.40;;;10.23;;
7377;SDS011;3730;50.856;12.776;2023-10-19T02:09:26;12.63;;;10.23;;
7377;SDS011;3730;50.856;12.776;2023-10-19T02:11:54;12.23;;;9.97;;
7377;SDS011;3730;50.856;12.776;2023-10-19T02:14:22;15.60;;;10.17;;
7377;SDS011;3730;50.856;12.776;2023-10-19T02:16:54;14.77;;;11.90;;
7377;SDS011;3730;50.856;12.776;2023-10-19T02:19:29;14.73;;;11.43;;
7377;SDS011;3730;50.856;12.776;2023-10-19T02:21:56;14.80;;;11.70;;
7377;SDS011;3730;50.856;12.776;2023-10-19T02:24:23;13.77;;;11.53;;
7377;SDS011;3730;50.856;12.776;2023-10-19T02:26:51;14.67;;;11.33;;
7377;SDS011;3730;50.856;12.776;2023-10-19T02:29:17;17.60;;;12.53;;
7377;SDS011;3730;50.856;12.776;2023-10-19T02:31:43;16.43;;;11.50;;
7377;SDS011;3730;50.856;12.776;2023-10-19T02:34:10;16.07;;;12.80;;
7377;SDS011;3730;50.856;12.776;2023-10-19T02:36:40;14.43;;;12.23;;
7377;SDS011;3730;50.856;12.776;2023-10-19T02:39:10;19.00;;;13.93;;
7377;SDS011;3730;50.856;12.776;2023-10-19T02:41:42;15.67;;;13.27;;
7377;SDS011;3730;50.856;12.776;2023-10-19T02:44:13;14.43;;;12.73;;
7377;SDS011;3730;50.856;12.776;2023-10-19T02:46:43;15.83;;;12.10;;
7377;SDS011;3730;50.856;12.776;2023-10-19T02:49:10;13.67;;;12.27;;
7377;SDS011;3730;50.856;12.776;2023-10-19T02:51:38;14.03;;;12.40;;
7377;SDS011;3730;50.856;12.776;2023-10-19T02:54:06;16.67;;;14.17;;
7377;SDS011;3730;50.856;12.776;2023-10-19T02:56:33;15.80;;;13.37;;
7377;SDS011;3730;50.856;12.776;2023-10-19T02:59:05;15.57;;;12.10;;
7377;SDS011;3730;50.856;12.776;2023-10-19T03:01:31;16.53;;;13.60;;
7377;SDS011;3730;50.856;12.776;2023-10-19T03:03:59;17.27;;;14.30;;
7377;SDS011;3730;50.856;12.776;2023-10-19T03:06:27;18.17;;;14.20;;
7377;SDS011;3730;50.856;12.776;2023-10-19T03:08:58;19.30;;;14.57;;
7377;SDS011;3730;50.856;12.776;2023-10-19T03:11:29;19.80;;;15.47;;
7377;SDS011;3730;50.856;12.776;2023-10-19T03:13:55;16.83;;;13.80;;
7377;SDS011;3730;50.856;12.776;2023-10-19T03:16:22;19.80;;;13.80;;
7377;SDS011;3730;50.856;12.776;2023-10-19T03:18:48;15.67;;;12.83;;
7377;SDS011;3730;50.856;12.776;2023-10-19T03:21:16;15.73;;;13.47;;
7377;SDS011;3730;50.856;12.776;2023-10-19T03:23:44;17.93;;;14.87;;
7377;SDS011;3730;50.856;12.776;2023-10-19T03:26:09;21.10;;;15.47;;
7377;SDS011;3730;50.856;12.776;2023-10-19T03:28:56;20.87;;;16.27;;
7377;SDS011;3730;50.856;12.776;2023-10-19T03:31:33;18.97;;;15.60;;
7377;SDS011;3730;50.856;12.776;2023-10-19T03:34:08;19.40;;;14.73;;
7377;SDS011;3730;50.856;12.776;2023-10-19T03:36:38;20.93;;;15.77;;
7377;SDS011;3730;50.856;12.776;2023-10-19T03:39:04;20.50;;;16.17;;
7377;SDS011;3730;50.856;12.776;2023-10-19T03:41:43;18.47;;;15.63;;
7377;SDS011;3730;50.856;12.776;2023-10-19T03:44:13;21.90;;;17.17;;
7377;SDS011;3730;50.856;12.776;2023-10-19T03:46:49;17.97;;;14.43;;
7377;SDS011;3730;50.856;12.776;2023-10-19T03:49:19;17.20;;;14.87;;
7377;SDS011;3730;50.856;12.776;2023-10-19T03:51:45;23.57;;;16.83;;
7377;SDS011;3730;50.856;12.776;2023-10-19T03:54:25;19.83;;;15.67;;
7377;SDS011;3730;50.856;12.776;2023-10-19T03:56:52;20.23;;;15.57;;
7377;SDS011;3730;50.856;12.776;2023-10-19T03:59:18;16.00;;;14.23;;
7377;SDS011;3730;50.856;12.776;2023-10-19T04:01:45;18.40;;;14.63;;
7377;SDS011;3730;50.856;12.776;2023-10-19T04:04:11;17.77;;;15.57;;
7377;SDS011;3730;50.856;12.776;2023-10-19T04:06:37;19.93;;;14.70;;
7377;SDS011;3730;50.856;12.776;2023-10-19T04:09:03;19.40;;;16.07;;
7377;SDS011;3730;50.856;12.776;2023-10-19T04:11:32;19.03;;;15.67;;
7377;SDS011;3730;50.856;12.776;2023-10-19T04:14:09;19.67;;;15.77;;
7377;SDS011;3730;50.856;12.776;2023-10-19T04:16:35;16.60;;;14.60;;
7377;SDS011;3730;50.856;12.776;2023-10-19T04:19:02;17.70;;;15.20;;
7377;SDS011;3730;50.856;12.776;2023-10-19T04:21:29;20.77;;;15.77;;
7377;SDS011;3730;50.856;12.776;2023-10-19T04:23:55;17.87;;;15.03;;
7377;SDS011;3730;50.856;12.776;2023-10-19T04:26:22;20.03;;;16.73;;
7377;SDS011;3730;50.856;12.776;2023-10-19T04:28:49;20.87;;;16.97;;
7377;SDS011;3730;50.856;12.776;2023-10-19T04:31:18;20.57;;;15.70;;
7377;SDS011;3730;50.856;12.776;2023-10-19T04:33:44;19.17;;;14.97;;
7377;SDS011;3730;50.856;12.776;2023-10-19T04:36:11;19.10;;;14.53;;
7377;SDS011;3730;50.856;12.776;2023-10-19T04:38:38;19.77;;;15.80;;
7377;SDS011;3730;50.856;12.776;2023-10-19T04:41:08;15.07;;;13.47;;
7377;SDS011;3730;50.856;12.776;2023-10-19T04:43:35;16.27;;;14.27;;
7377;SDS011;3730;50.856;12.776;2023-10-19T04:46:06;21.17;;;16.97;;
7377;SDS011;3730;50.856;12.776;2023-10-19T04:48:39;18.20;;;15.93;;
7377;SDS011;3730;50.856;12.776;2023-10-19T04:51:08;19.53;;;16.77;;
7377;SDS011;3730;50.856;12.776;2023-10-19T04:53:34;18.60;;;15.20;;
7377;SDS011;3730;50.856;12.776;2023-10-19T04:56:02;16.63;;;14.87;;
7377;SDS011;3730;50.856;12.776;2023-10-19T04:58:33;19.53;;;16.43;;
7377;SDS011;3730;50.856;12.776;2023-10-19T05:01:00;20.63;;;17.23;;
7377;SDS011;3730;50.856;12.776;2023-10-19T05:03:28;22.30;;;17.20;;
7377;SDS011;3730;50.856;12.776;2023-10-19T05:05:54;19.63;;;17.50;;
7377;SDS011;3730;50.856;12.776;2023-10-19T05:08:21;20.87;;;16.43;;
7377;SDS011;3730;50.856;12.776;2023-10-19T05:10:50;26.50;;;22.47;;
7377;SDS011;3730;50.856;12.776;2023-10-19T05:13:20;21.00;;;18.73;;
7377;SDS011;3730;50.856;12.776;2023-10-19T05:15:48;27.90;;;19.10;;
7377;SDS011;3730;50.856;12.776;2023-10-19T05:18:14;20.33;;;17.13;;
7377;SDS011;3730;50.856;12.776;2023-10-19T05:20:40;22.53;;;18.37;;
7377;SDS011;3730;50.856;12.776;2023-10-19T05:23:09;18.83;;;16.80;;
7377;SDS011;3730;50.856;12.776;2023-10-19T05:25:35;20.90;;;17.83;;
7377;SDS011;3730;50.856;12.776;2023-10-19T05:28:03;21.53;;;18.43;;
7377;SDS011;3730;50.856;12.776;2023-10-19T05:30:30;22.40;;;18.27;;
7377;SDS011;3730;50.856;12.776;2023-10-19T05:32:56;21.07;;;17.47;;
7377;SDS011;3730;50.856;12.776;2023-10-19T05:35:31;21.33;;;16.50;;
7377;SDS011;3730;50.856;12.776;2023-10-19T05:38:00;103.13;;;22.17;;
7377;SDS011;3730;50.856;12.776;2023-10-19T05:40:27;24.80;;;16.60;;
7377;SDS011;3730;50.856;12.776;2023-10-19T05:42:56;20.07;;;16.50;;
7377;SDS011;3730;50.856;12.776;2023-10-19T05:45:23;21.40;;;17.17;;
7377;SDS011;3730;50.856;12.776;2023-10-19T05:47:49;20.80;;;16.47;;
7377;SDS011;3730;50.856;12.776;2023-10-19T05:50:15;21.17;;;16.37;;
7377;SDS011;3730;50.856;12.776;2023-10-19T05:52:41;18.30;;;16.13;;
7377;SDS011;3730;50.856;12.776;2023-10-19T05:55:08;18.80;;;15.50;;
7377;SDS011;3730;50.856;12.776;2023-10-19T05:57:37;16.10;;;14.30;;
7377;SDS011;3730;50.856;12.776;2023-10-19T06:00:06;15.73;;;13.93;;
7377;SDS011;3730;50.856;12.776;2023-10-19T06:02:37;15.97;;;13.30;;
7377;SDS011;3730;50.856;12.776;2023-10-19T06:05:08;19.37;;;15.10;;
7377;SDS011;3730;50.856;12.776;2023-10-19T06:07:34;16.37;;;14.37;;
7377;SDS011;3730;50.856;12.776;2023-10-19T06:10:01;15.13;;;13.53;;
7377;SDS011;3730;50.856;12.776;2023-10-19T06:12:29;16.33;;;14.13;;
7377;SDS011;3730;50.856;12.776;2023-10-19T06:14:56;14.70;;;13.13;;
7377;SDS011;3730;50.856;12.776;2023-10-19T06:17:21;14.57;;;12.30;;
7377;SDS011;3730;50.856;12.776;2023-10-19T06:19:48;18.30;;;15.73;;
7377;SDS011;3730;50.856;12.776;2023-10-19T06:22:14;12.70;;;11.40;;
7377;SDS011;3730;50.856;12.776;2023-10-19T06:24:41;12.57;;;10.63;;
7377;SDS011;3730;50.856;12.776;2023-10-19T06:27:09;13.53;;;11.73;;
7377;SDS011;3730;50.856;12.776;2023-10-19T06:29:37;11.77;;;10.53;;
7377;SDS011;3730;50.856;12.776;2023-10-19T06:32:03;13.27;;;11.80;;
7377;SDS011;3730;50.856;12.776;2023-10-19T06:34:29;14.37;;;12.10;;
7377;SDS011;3730;50.856;12.776;2023-10-19T06:36:55;15.37;;;12.17;;
7377;SDS011;3730;50.856;12.776;2023-10-19T06:39:20;14.87;;;12.87;;
7377;SDS011;3730;50.856;12.776;2023-10-19T06:41:46;14.33;;;12.83;;
7377;SDS011;3730;50.856;12.776;2023-10-19T06:44:13;14.27;;;11.37;;
7377;SDS011;3730;50.856;12.776;2023-10-19T06:46:38;13.30;;;11.83;;
7377;SDS011;3730;50.856;12.776;2023-10-19T06:49:04;13.27;;;11.30;;
7377;SDS011;3730;50.856;12.776;2023-10-19T06:51:31;14.90;;;13.03;;
7377;SDS011;3730;50.856;12.776;2023-10-19T06:53:58;13.63;;;12.23;;
7377;SDS011;3730;50.856;12.776;2023-10-19T06:56:24;14.43;;;11.77;;
7377;SDS011;3730;50.856;12.776;2023-10-19T06:58:50;12.87;;;11.50;;
7377;SDS011;3730;50.856;12.776;2023-10-19T07:01:15;12.40;;;11.00;;
7377;SDS011;3730;50.856;12.776;2023-10-19T07:03:42;12.50;;;11.17;;
7377;SDS011;3730;50.856;12.776;2023-10-19T07:06:08;8.97;;;8.07;;
7377;SDS011;3730;50.856;12.776;2023-10-19T07:08:38;12.10;;;10.40;;
7377;SDS011;3730;50.856;12.776;2023-10-19T07:11:05;13.27;;;10.57;;
7377;SDS011;3730;50.856;12.776;2023-10-19T07:13:32;11.57;;;10.30;;
7377;SDS011;3730;50.856;12.776;2023-10-19T07:15:58;11.77;;;10.57;;
7377;SDS011;3730;50.856;12.776;2023-10-19T07:18:24;12.17;;;10.87;;
7377;SDS011;3730;50.856;12.776;2023-10-19T07:20:51;12.50;;;10.97;;
7377;SDS011;3730;50.856;12.776;2023-10-19T07:23:18;12.27;;;10.77;;
7377;SDS011;3730;50.856;12.776;2023-10-19T07:25:45;12.83;;;11.07;;
7377;SDS011;3730;50.856;12.776;2023-10-19T07:28:13;13.20;;;10.43;;
7377;SDS011;3730;50.856;12.776;2023-10-19T07:30:40;12.77;;;10.60;;
7377;SDS011;3730;50.856;12.776;2023-10-19T07:33:06;11.83;;;10.57;;
7377;SDS011;3730;50.856;12.776;2023-10-19T07:35:34;11.60;;;10.43;;
7377;SDS011;3730;50.856;12.776;2023-10-19T07:38:04;11.40;;;10.30;;
7377;SDS011;3730;50.856;12.776;2023-10-19T07:40:32;11.90;;;10.63;;
7377;SDS011;3730;50.856;12.776;2023-10-19T07:42:58;12.10;;;10.60;;
7377;SDS011;3730;50.856;12.776;2023-10-19T07:45:24;11.70;;;10.37;;
7377;SDS011;3730;50.856;12.776;2023-10-19T07:47:50;11.53;;;10.03;;
7377;SDS011;3730;50.856;12.776;2023-10-19T07:50:16;12.97;;;10.47;;
7377;SDS011;3730;50.856;12.776;2023-10-19T07:52:45;12.83;;;10.87;;
7377;SDS011;3730;50.856;12.776;2023-10-19T07:55:14;12.43;;;11.13;;
7377;SDS011;3730;50.856;12.776;2023-10-19T07:57:43;13.23;;;11.20;;
7377;SDS011;3730;50.856;12.776;2023-10-19T08:00:10;11.37;;;9.50;;
7377;SDS011;3730;50.856;12.776;2023-10-19T08:02:39;12.40;;;10.87;;
7377;SDS011;3730;50.856;12.776;2023-10-19T08:05:06;12.90;;;11.40;;
7377;SDS011;3730;50.856;12.776;2023-10-19T08:07:33;15.30;;;11.90;;
7377;SDS011;3730;50.856;12.776;2023-10-19T08:09:59;12.23;;;10.87;;
7377;SDS011;3730;50.856;12.776;2023-10-19T08:12:25;12.80;;;11.37;;
7377;SDS011;3730;50.856;12.776;2023-10-19T08:14:56;11.83;;;10.63;;
7377;SDS011;3730;50.856;12.776;2023-10-19T08:17:22;14.00;;;12.57;;
7377;SDS011;3730;50.856;12.776;2023-10-19T08:19:48;14.73;;;12.10;;
7377;SDS011;3730;50.856;12.776;2023-10-19T08:22:15;12.73;;;11.40;;
7377;SDS011;3730;50.856;12.776;2023-10-19T08:24:41;13.63;;;11.43;;
7377;SDS011;3730;50.856;12.776;2023-10-19T08:27:08;16.40;;;13.80;;
7377;SDS011;3730;50.856;12.776;2023-10-19T08:29:36;14.83;;;12.63;;
7377;SDS011;3730;50.856;12.776;2023-10-19T08:32:02;12.67;;;11.37;;
7377;SDS011;3730;50.856;12.776;2023-10-19T08:34:28;13.83;;;12.30;;
7377;SDS011;3730;50.856;12.776;2023-10-19T08:36:57;15.60;;;13.23;;
7377;SDS011;3730;50.856;12.776;2023-10-19T08:39:24;14.43;;;12.17;;
7377;SDS011;3730;50.856;12.776;2023-10-19T08:41:50;15.83;;;13.07;;
7377;SDS011;3730;50.856;12.776;2023-10-19T08:44:20;14.27;;;11.73;;
7377;SDS011;3730;50.856;12.776;2023-10-19T08:46:46;15.43;;;13.23;;
7377;SDS011;3730;50.856;12.776;2023-10-19T08:49:13;15.37;;;13.50;;
7377;SDS011;3730;50.856;12.776;2023-10-19T08:51:41;14.40;;;12.97;;
7377;SDS011;3730;50.856;12.776;2023-10-19T08:54:09;13.37;;;12.07;;
7377;SDS011;3730;50.856;12.776;2023-10-19T08:56:37;13.53;;;12.13;;
7377;SDS011;3730;50.856;12.776;2023-10-19T08:59:04;12.97;;;11.57;;
7377;SDS011;3730;50.856;12.776;2023-10-19T09:01:31;12.97;;;11.60;;
7377;SDS011;3730;50.856;12.776;2023-10-19T09:04:00;13.10;;;11.53;;
7377;SDS011;3730;50.856;12.776;2023-10-19T09:06:27;14.77;;;12.60;;
7377;SDS011;3730;50.856;12.776;2023-10-19T09:08:54;12.50;;;11.20;;
7377;SDS011;3730;50.856;12.776;2023-10-19T09:11:22;14.83;;;13.33;;
7377;SDS011;3730;50.856;12.776;2023-10-19T09:13:52;17.33;;;14.47;;
7377;SDS011;3730;50.856;12.776;2023-10-19T09:16:20;14.83;;;13.30;;
7377;SDS011;3730;50.856;12.776;2023-10-19T09:18:46;13.80;;;12.43;;
7377;SDS011;3730;50.856;12.776;2023-10-19T09:21:16;15.47;;;13.83;;
7377;SDS011;3730;50.856;12.776;2023-10-19T09:23:53;15.13;;;13.03;;
7377;SDS011;3730;50.856;12.776;2023-10-19T09:26:21;17.57;;;14.00;;
7377;SDS011;3730;50.856;12.776;2023-10-19T09:28:47;15.20;;;13.70;;
7377;SDS011;3730;50.856;12.776;2023-10-19T09:31:13;15.20;;;13.57;;
7377;SDS011;3730;50.856;12.776;2023-10-19T09:33:41;14.37;;;12.87;;
7377;SDS011;3730;50.856;12.776;2023-10-19T09:36:09;13.37;;;11.97;;
7377;SDS011;3730;50.856;12.776;2023-10-19T09:38:45;14.27;;;12.53;;
7377;SDS011;3730;50.856;12.776;2023-10-19T09:41:21;16.13;;;12.63;;
7377;SDS011;3730;50.856;12.776;2023-10-19T09:43:52;14.33;;;12.83;;
7377;SDS011;3730;50.856;12.776;2023-10-19T09:46:24;14.03;;;12.47;;
7377;SDS011;3730;50.856;12.776;2023-10-19T09:48:53;14.03;;;12.57;;
7377;SDS011;3730;50.856;12.776;2023-10-19T09:51:20;12.63;;;11.33;;
7377;SDS011;3730;50.856;12.776;2023-10-19T09:53:51;12.83;;;11.47;;
7377;SDS011;3730;50.856;12.776;2023-10-19T09:56:20;13.40;;;12.10;;
7377;SDS011;3730;50.856;12.776;2023-10-19T09:58:48;12.93;;;11.63;;
7377;SDS011;3730;50.856;12.776;2023-10-19T10:01:15;14.07;;;12.57;;
7377;SDS011;3730;50.856;12.776;2023-10-19T10:03:41;12.80;;;11.50;;
7377;SDS011;3730;50.856;12.776;2023-10-19T10:06:08;12.37;;;11.07;;
7377;SDS011;3730;50.856;12.776;2023-10-19T10:08:38;11.43;;;10.33;;
7377;SDS011;3730;50.856;12.776;2023-10-19T10:13:43;12.70;;;10.87;;
7377;SDS011;3730;50.856;12.776;2023-10-19T10:16:16;10.77;;;9.67;;
7377;SDS011;3730;50.856;12.776;2023-10-19T10:18:42;12.20;;;10.93;;
7377;SDS011;3730;50.856;12.776;2023-10-19T10:21:14;13.07;;;11.60;;
7377;SDS011;3730;50.856;12.776;2023-10-19T10:26:11;11.50;;;9.30;;
7377;SDS011;3730;50.856;12.776;2023-10-19T10:28:38;13.20;;;11.37;;
7377;SDS011;3730;50.856;12.776;2023-10-19T10:31:11;11.80;;;10.20;;
7377;SDS011;3730;50.856;12.776;2023-10-19T10:33:51;10.60;;;9.63;;
7377;SDS011;3730;50.856;12.776;2023-10-19T10:36:19;10.83;;;9.70;;
7377;SDS011;3730;50.856;12.776;2023-10-19T10:38:49;11.23;;;10.13;;
7377;SDS011;3730;50.856;12.776;2023-10-19T10:41:22;11.30;;;10.13;;
7377;SDS011;3730;50.856;12.776;2023-10-19T10:43:56;11.67;;;10.43;;
7377;SDS011;3730;50.856;12.776;2023-10-19T10:46:26;9.27;;;8.37;;
7377;SDS011;3730;50.856;12.776;2023-10-19T10:48:54;10.00;;;9.00;;
7377;SDS011;3730;50.856;12.776;2023-10-19T10:53:52;8.57;;;7.77;;
7377;SDS011;3730;50.856;12.776;2023-10-19T10:56:19;8.03;;;7.10;;
7377;SDS011;3730;50.856;12.776;2023-10-19T10:58:45;8.90;;;7.93;;
7377;SDS011;3730;50.856;12.776;2023-10-19T11:01:11;9.97;;;7.97;;
7377;SDS011;3730;50.856;12.776;2023-10-19T11:03:38;7.40;;;6.70;;
7377;SDS011;3730;50.856;12.776;2023-10-19T11:06:08;7.33;;;6.63;;
7377;SDS011;3730;50.856;12.776;2023-10-19T11:08:34;8.00;;;7.30;;
7377;SDS011;3730;50.856;12.776;2023-10-19T11:11:04;7.93;;;7.33;;
7377;SDS011;3730;50.856;12.776;2023-10-19T11:13:31;8.60;;;7.80;;
7377;SDS011;3730;50.856;12.776;2023-10-19T11:16:00;8.07;;;7.27;;
7377;SDS011;3730;50.856;12.776;2023-10-19T11:20:55;8.07;;;7.37;;
7377;SDS011;3730;50.856;12.776;2023-10-19T11:23:34;7.80;;;7.10;;
7377;SDS011;3730;50.856;12.776;2023-10-19T11:26:01;7.97;;;7.20;;
7377;SDS011;3730;50.856;12.776;2023-10-19T11:28:27;7.10;;;6.40;;
7377;SDS011;3730;50.856;12.776;2023-10-19T11:30:55;7.63;;;6.93;;
7377;SDS011;3730;50.856;12.776;2023-10-19T11:33:21;6.97;;;6.30;;
7377;SDS011;3730;50.856;12.776;2023-10-19T11:35:49;6.63;;;5.70;;
7377;SDS011;3730;50.856;12.776;2023-10-19T11:38:15;5.57;;;5.07;;
7377;SDS011;3730;50.856;12.776;2023-10-19T11:40:43;5.30;;;4.80;;
7377;SDS011;3730;50.856;12.776;2023-10-19T11:43:09;6.03;;;5.43;;
7377;SDS011;3730;50.856;12.776;2023-10-19T11:45:35;5.80;;;5.07;;
7377;SDS011;3730;50.856;12.776;2023-10-19T11:48:01;6.17;;;5.57;;
7377;SDS011;3730;50.856;12.776;2023-10-19T11:50:27;6.23;;;5.63;;
7377;SDS011;3730;50.856;12.776;2023-10-19T11:52:53;6.23;;;5.63;;
7377;SDS011;3730;50.856;12.776;2023-10-19T11:55:21;6.07;;;5.57;;
7377;SDS011;3730;50.856;12.776;2023-10-19T11:57:47;7.73;;;7.13;;
7377;SDS011;3730;50.856;12.776;2023-10-19T12:00:13;6.53;;;5.93;;
7377;SDS011;3730;50.856;12.776;2023-10-19T12:02:45;6.17;;;5.60;;
7377;SDS011;3730;50.856;12.776;2023-10-19T12:05:13;6.00;;;5.47;;
7377;SDS011;3730;50.856;12.776;2023-10-19T12:07:39;7.50;;;6.30;;
7377;SDS011;3730;50.856;12.776;2023-10-19T12:10:06;6.73;;;5.83;;
7377;SDS011;3730;50.856;12.776;2023-10-19T12:12:35;5.70;;;5.20;;
7377;SDS011;3730;50.856;12.776;2023-10-19T12:15:02;5.90;;;5.30;;
7377;SDS011;3730;50.856;12.776;2023-10-19T12:17:30;8.87;;;5.97;;
7377;SDS011;3730;50.856;12.776;2023-10-19T12:19:56;6.07;;;5.57;;
7377;SDS011;3730;50.856;12.776;2023-10-19T12:22:22;6.23;;;5.53;;
7377;SDS011;3730;50.856;12.776;2023-10-19T12:24:50;6.13;;;5.20;;
7377;SDS011;3730;50.856;12.776;2023-10-19T12:27:19;7.50;;;5.90;;
7377;SDS011;3730;50.856;12.776;2023-10-19T12:29:46;5.77;;;5.27;;
7377;SDS011;3730;50.856;12.776;2023-10-19T12:32:12;5.77;;;5.27;;
7377;SDS011;3730;50.856;12.776;2023-10-19T12:34:41;6.03;;;5.40;;
7377;SDS011;3730;50.856;12.776;2023-10-19T12:37:09;5.87;;;5.30;;
7377;SDS011;3730;50.856;12.776;2023-10-19T12:39:37;5.77;;;5.27;;
7377;SDS011;3730;50.856;12.776;2023-10-19T12:42:14;5.60;;;5.07;;
7377;SDS011;3730;50.856;12.776;2023-10-19T12:44:40;7.30;;;5.50;;
7377;SDS011;3730;50.856;12.776;2023-10-19T12:47:07;6.77;;;5.40;;
7377;SDS011;3730;50.856;12.776;2023-10-19T12:49:40;6.20;;;5.57;;
7377;SDS011;3730;50.856;12.776;2023-10-19T12:52:07;7.77;;;5.17;;
7377;SDS011;3730;50.856;12.776;2023-10-19T12:54:34;5.97;;;4.90;;
7377;SDS011;3730;50.856;12.776;2023-10-19T12:57:01;4.93;;;4.50;;
7377;SDS011;3730;50.856;12.776;2023-10-19T12:59:29;6.60;;;5.17;;
7377;SDS011;3730;50.856;12.776;2023-10-19T13:01:55;5.23;;;4.30;;
7377;SDS011;3730;50.856;12.776;2023-10-19T13:04:23;5.30;;;4.80;;
7377;SDS011;3730;50.856;12.776;2023-10-19T13:06:50;5.17;;;4.67;;
7377;SDS011;3730;50.856;12.776;2023-10-19T13:09:16;5.63;;;4.83;;
7377;SDS011;3730;50.856;12.776;2023-10-19T13:11:47;5.73;;;5.23;;
7377;SDS011;3730;50.856;12.776;2023-10-19T13:14:17;5.00;;;4.60;;
7377;SDS011;3730;50.856;12.776;2023-10-19T13:16:43;6.20;;;5.03;;
7377;SDS011;3730;50.856;12.776;2023-10-19T13:19:09;6.17;;;5.57;;
7377;SDS011;3730;50.856;12.776;2023-10-19T13:21:40;4.83;;;4.43;;
7377;SDS011;3730;50.856;12.776;2023-10-19T13:24:07;5.43;;;4.80;;
7377;SDS011;3730;50.856;12.776;2023-10-19T13:26:33;6.47;;;4.70;;
7377;SDS011;3730;50.856;12.776;2023-10-19T13:28:59;5.23;;;4.60;;
7377;SDS011;3730;50.856;12.776;2023-10-19T13:31:26;5.67;;;5.10;;
7377;SDS011;3730;50.856;12.776;2023-10-19T13:33:52;6.07;;;5.47;;
7377;SDS011;3730;50.856;12.776;2023-10-19T13:36:19;5.63;;;5.13;;
7377;SDS011;3730;50.856;12.776;2023-10-19T13:38:45;5.93;;;5.33;;
7377;SDS011;3730;50.856;12.776;2023-10-19T13:41:11;6.00;;;5.50;;
7377;SDS011;3730;50.856;12.776;2023-10-19T13:43:39;6.17;;;5.57;;
7377;SDS011;3730;50.856;12.776;2023-10-19T13:46:07;6.20;;;5.30;;
7377;SDS011;3730;50.856;12.776;2023-10-19T13:48:33;6.40;;;5.80;;
7377;SDS011;3730;50.856;12.776;2023-10-19T13:50:59;6.47;;;5.67;;
7377;SDS011;3730;50.856;12.776;2023-10-19T13:53:26;6.90;;;6.30;;
7377;SDS011;3730;50.856;12.776;2023-10-19T13:55:52;6.43;;;5.83;;
7377;SDS011;3730;50.856;12.776;2023-10-19T13:58:18;6.57;;;5.80;;
7377;SDS011;3730;50.856;12.776;2023-10-19T14:00:44;6.67;;;5.97;;
7377;SDS011;3730;50.856;12.776;2023-10-19T14:03:11;6.67;;;5.77;;
7377;SDS011;3730;50.856;12.776;2023-10-19T14:05:45;6.27;;;5.13;;
7377;SDS011;3730;50.856;12.776;2023-10-19T14:08:16;5.10;;;4.60;;
7377;SDS011;3730;50.856;12.776;2023-10-19T14:10:42;6.23;;;5.63;;
7377;SDS011;3730;50.856;12.776;2023-10-19T14:13:09;5.90;;;5.40;;
7377;SDS011;3730;50.856;12.776;2023-10-19T14:15:36;5.63;;;5.07;;
7377;SDS011;3730;50.856;12.776;2023-10-19T14:18:03;5.43;;;4.93;;
7377;SDS011;3730;50.856;12.776;2023-10-19T14:20:29;6.00;;;5.00;;
7377;SDS011;3730;50.856;12.776;2023-10-19T14:22:56;6.07;;;5.13;;
7377;SDS011;3730;50.856;12.776;2023-10-19T14:25:23;5.97;;;4.77;;
7377;SDS011;3730;50.856;12.776;2023-10-19T14:27:50;5.40;;;4.90;;
7377;SDS011;3730;50.856;12.776;2023-10-19T14:30:16;5.50;;;5.00;;
7377;SDS011;3730;50.856;12.776;2023-10-19T14:32:44;8.77;;;6.10;;
7377;SDS011;3730;50.856;12.776;2023-10-19T14:35:12;7.53;;;6.63;;
7377;SDS011;3730;50.856;12.776;2023-10-19T14:37:40;6.07;;;5.47;;
7377;SDS011;3730;50.856;12.776;2023-10-19T14:40:07;6.37;;;5.77;;
7377;SDS011;3730;50.856;12.776;2023-10-19T14:42:34;8.40;;;5.10;;
7377;SDS011;3730;50.856;12.776;2023-10-19T14:45:01;5.33;;;4.83;;
7377;SDS011;3730;50.856;12.776;2023-10-19T14:47:29;5.70;;;5.07;;
7377;SDS011;3730;50.856;12.776;2023-10-19T14:49:55;6.20;;;5.33;;
7377;SDS011;3730;50.856;12.776;2023-10-19T14:52:21;6.73;;;6.00;;
7377;SDS011;3730;50.856;12.776;2023-10-19T14:54:48;6.93;;;5.70;;
7377;SDS011;3730;50.856;12.776;2023-10-19T14:57:15;5.97;;;5.37;;
7377;SDS011;3730;50.856;12.776;2023-10-19T14:59:41;7.80;;;5.40;;
7377;SDS011;3730;50.856;12.776;2023-10-19T15:02:07;8.33;;;5.53;;
7377;SDS011;3730;50.856;12.776;2023-10-19T15:04:37;7.50;;;5.50;;